sensor_id;sensor_type;location;lat;lon;timestamp;P1;durP1;ratioP1;P2;durP2;ratioP2
14268;SDS011;7218;51.480;7.006;2022-10-17T00:00:17;5.90;;;4.60;;
14268;SDS011;7218;51.480;7.006;2022-10-17T00:02:44;5.20;;;4.60;;
14268;SDS011;7218;51.480;7.006;2022-10-17T00:05:10;6.07;;;4.50;;
14268;SDS011;7218;51.480;7.006;2022-10-17T00:07:36;8.30;;;4.32;;
14268;SDS011;7218;51.480;7.006;2022-10-17T00:10:04;6.38;;;4.68;;
14268;SDS011;7218;51.480;7.006;2022-10-17T00:12:31;6.03;;;4.38;;
14268;SDS011;7218;51.480;7.006;2022-10-17T00:14:58;7.45;;;4.90;;
14268;SDS011;7218;51.480;7.006;2022-10-17T00:17:25;7.50;;;4.50;;
14268;SDS011;7218;51.480;7.006;2022-10-17T00:19:52;5.18;;;4.43;;
14268;SDS011;7218;51.480;7.006;2022-10-17T00:22:18;7.22;;;4.50;;
14268;SDS011;7218;51.480;7.006;2022-10-17T00:24:45;9.10;;;4.82;;
14268;SDS011;7218;51.480;7.006;2022-10-17T00:27:11;7.85;;;4.85;;
14268;SDS011;7218;51.480;7.006;2022-10-17T00:29:38;5.25;;;4.50;;
14268;SDS011;7218;51.480;7.006;2022-10-17T00:32:04;5.82;;;4.97;;
14268;SDS011;7218;51.480;7.006;2022-10-17T00:37:00;6.90;;;4.60;;
14268;SDS011;7218;51.480;7.006;2022-10-17T00:39:26;6.60;;;4.85;;
14268;SDS011;7218;51.480;7.006;2022-10-17T00:41:53;6.57;;;5.30;;
14268;SDS011;7218;51.480;7.006;2022-10-17T00:47:23;9.13;;;4.97;;
14268;SDS011;7218;51.480;7.006;2022-10-17T00:49:51;5.78;;;5.13;;
14268;SDS011;7218;51.480;7.006;2022-10-17T00:52:18;5.30;;;4.80;;
14268;SDS011;7218;51.480;7.006;2022-10-17T00:54:49;6.75;;;5.20;;
14268;SDS011;7218;51.480;7.006;2022-10-17T00:57:19;5.95;;;5.18;;
14268;SDS011;7218;51.480;7.006;2022-10-17T00:59:46;8.18;;;5.20;;
14268;SDS011;7218;51.480;7.006;2022-10-17T01:02:17;5.32;;;4.82;;
14268;SDS011;7218;51.480;7.006;2022-10-17T01:04:46;9.07;;;5.15;;
14268;SDS011;7218;51.480;7.006;2022-10-17T01:07:16;7.80;;;5.00;;
14268;SDS011;7218;51.480;7.006;2022-10-17T01:09:43;7.18;;;5.18;;
14268;SDS011;7218;51.480;7.006;2022-10-17T01:12:14;9.05;;;5.30;;
14268;SDS011;7218;51.480;7.006;2022-10-17T01:14:47;8.30;;;5.30;;
14268;SDS011;7218;51.480;7.006;2022-10-17T01:17:23;7.03;;;4.70;;
14268;SDS011;7218;51.480;7.006;2022-10-17T01:19:58;7.63;;;5.35;;
14268;SDS011;7218;51.480;7.006;2022-10-17T01:22:50;6.18;;;5.18;;
14268;SDS011;7218;51.480;7.006;2022-10-17T01:25:30;8.73;;;5.00;;
14268;SDS011;7218;51.480;7.006;2022-10-17T01:28:15;5.75;;;5.05;;
14268;SDS011;7218;51.480;7.006;2022-10-17T01:30:56;7.88;;;5.15;;
14268;SDS011;7218;51.480;7.006;2022-10-17T01:33:32;7.88;;;5.20;;
14268;SDS011;7218;51.480;7.006;2022-10-17T01:36:10;6.13;;;4.72;;
14268;SDS011;7218;51.480;7.006;2022-10-17T01:38:43;9.93;;;5.10;;
14268;SDS011;7218;51.480;7.006;2022-10-17T01:41:14;6.80;;;4.78;;
14268;SDS011;7218;51.480;7.006;2022-10-17T01:43:51;6.50;;;4.75;;
14268;SDS011;7218;51.480;7.006;2022-10-17T01:46:23;6.90;;;4.85;;
14268;SDS011;7218;51.480;7.006;2022-10-17T01:48:54;6.00;;;4.07;;
14268;SDS011;7218;51.480;7.006;2022-10-17T01:51:26;6.80;;;4.70;;
14268;SDS011;7218;51.480;7.006;2022-10-17T01:53:56;7.65;;;4.38;;
14268;SDS011;7218;51.480;7.006;2022-10-17T01:56:25;6.88;;;4.25;;
14268;SDS011;7218;51.480;7.006;2022-10-17T01:58:56;8.13;;;4.18;;
14268;SDS011;7218;51.480;7.006;2022-10-17T02:01:29;4.95;;;4.03;;
14268;SDS011;7218;51.480;7.006;2022-10-17T02:03:56;6.20;;;4.13;;
14268;SDS011;7218;51.480;7.006;2022-10-17T02:06:24;7.80;;;4.28;;
14268;SDS011;7218;51.480;7.006;2022-10-17T02:08:50;5.55;;;4.50;;
14268;SDS011;7218;51.480;7.006;2022-10-17T02:11:17;4.80;;;3.85;;
14268;SDS011;7218;51.480;7.006;2022-10-17T02:14:00;5.90;;;3.65;;
14268;SDS011;7218;51.480;7.006;2022-10-17T02:16:41;4.43;;;3.40;;
14268;SDS011;7218;51.480;7.006;2022-10-17T02:19:22;4.80;;;3.92;;
14268;SDS011;7218;51.480;7.006;2022-10-17T02:22:03;6.38;;;3.70;;
14268;SDS011;7218;51.480;7.006;2022-10-17T02:24:44;6.82;;;3.90;;
14268;SDS011;7218;51.480;7.006;2022-10-17T02:27:16;5.43;;;3.67;;
14268;SDS011;7218;51.480;7.006;2022-10-17T02:29:51;8.13;;;3.90;;
14268;SDS011;7218;51.480;7.006;2022-10-17T02:32:26;4.90;;;3.90;;
14268;SDS011;7218;51.480;7.006;2022-10-17T02:34:59;6.75;;;3.92;;
14268;SDS011;7218;51.480;7.006;2022-10-17T02:37:28;5.63;;;3.92;;
14268;SDS011;7218;51.480;7.006;2022-10-17T02:39:58;4.20;;;3.80;;
14268;SDS011;7218;51.480;7.006;2022-10-17T02:42:27;5.53;;;3.85;;
14268;SDS011;7218;51.480;7.006;2022-10-17T02:44:56;5.20;;;4.00;;
14268;SDS011;7218;51.480;7.006;2022-10-17T02:47:27;7.57;;;3.60;;
14268;SDS011;7218;51.480;7.006;2022-10-17T02:49:58;4.20;;;3.80;;
14268;SDS011;7218;51.480;7.006;2022-10-17T02:52:26;5.18;;;3.80;;
14268;SDS011;7218;51.480;7.006;2022-10-17T02:55:00;6.43;;;3.70;;
14268;SDS011;7218;51.480;7.006;2022-10-17T02:57:32;4.97;;;3.72;;
14268;SDS011;7218;51.480;7.006;2022-10-17T03:00:04;5.72;;;3.67;;
14268;SDS011;7218;51.480;7.006;2022-10-17T03:02:38;4.60;;;3.70;;
14268;SDS011;7218;51.480;7.006;2022-10-17T03:05:06;6.57;;;3.83;;
14268;SDS011;7218;51.480;7.006;2022-10-17T03:07:33;6.00;;;4.22;;
14268;SDS011;7218;51.480;7.006;2022-10-17T03:09:59;6.35;;;3.85;;
14268;SDS011;7218;51.480;7.006;2022-10-17T03:12:26;6.70;;;3.70;;
14268;SDS011;7218;51.480;7.006;2022-10-17T03:14:52;4.53;;;3.63;;
14268;SDS011;7218;51.480;7.006;2022-10-17T03:17:19;4.63;;;3.58;;
14268;SDS011;7218;51.480;7.006;2022-10-17T03:19:46;6.38;;;3.78;;
14268;SDS011;7218;51.480;7.006;2022-10-17T03:22:13;5.78;;;3.50;;
14268;SDS011;7218;51.480;7.006;2022-10-17T03:24:39;8.68;;;3.70;;
14268;SDS011;7218;51.480;7.006;2022-10-17T03:27:06;5.93;;;3.53;;
14268;SDS011;7218;51.480;7.006;2022-10-17T03:29:32;5.88;;;3.58;;
14268;SDS011;7218;51.480;7.006;2022-10-17T03:31:59;8.10;;;3.60;;
14268;SDS011;7218;51.480;7.006;2022-10-17T03:34:25;5.38;;;3.92;;
14268;SDS011;7218;51.480;7.006;2022-10-17T03:36:53;9.10;;;3.72;;
14268;SDS011;7218;51.480;7.006;2022-10-17T03:39:19;4.07;;;3.55;;
14268;SDS011;7218;51.480;7.006;2022-10-17T03:41:46;5.15;;;3.65;;
14268;SDS011;7218;51.480;7.006;2022-10-17T03:44:12;5.45;;;3.67;;
14268;SDS011;7218;51.480;7.006;2022-10-17T03:46:39;7.47;;;3.83;;
14268;SDS011;7218;51.480;7.006;2022-10-17T03:49:05;4.00;;;3.10;;
14268;SDS011;7218;51.480;7.006;2022-10-17T03:51:32;4.13;;;3.33;;
14268;SDS011;7218;51.480;7.006;2022-10-17T03:54:00;5.32;;;3.47;;
14268;SDS011;7218;51.480;7.006;2022-10-17T03:56:27;5.53;;;3.50;;
14268;SDS011;7218;51.480;7.006;2022-10-17T03:58:53;6.07;;;3.33;;
14268;SDS011;7218;51.480;7.006;2022-10-17T04:01:20;5.88;;;3.45;;
14268;SDS011;7218;51.480;7.006;2022-10-17T04:03:47;6.15;;;3.40;;
14268;SDS011;7218;51.480;7.006;2022-10-17T04:06:15;6.15;;;3.40;;
14268;SDS011;7218;51.480;7.006;2022-10-17T04:08:42;6.50;;;3.67;;
14268;SDS011;7218;51.480;7.006;2022-10-17T04:11:12;6.78;;;3.85;;
14268;SDS011;7218;51.480;7.006;2022-10-17T04:13:40;7.95;;;3.53;;
14268;SDS011;7218;51.480;7.006;2022-10-17T04:16:09;3.83;;;3.42;;
14268;SDS011;7218;51.480;7.006;2022-10-17T04:18:37;6.40;;;3.50;;
14268;SDS011;7218;51.480;7.006;2022-10-17T04:21:04;4.82;;;3.47;;
14268;SDS011;7218;51.480;7.006;2022-10-17T04:23:32;7.10;;;3.70;;
14268;SDS011;7218;51.480;7.006;2022-10-17T04:25:59;7.00;;;3.70;;
14268;SDS011;7218;51.480;7.006;2022-10-17T04:28:29;10.63;;;3.80;;
14268;SDS011;7218;51.480;7.006;2022-10-17T04:30:56;5.28;;;3.13;;
14268;SDS011;7218;51.480;7.006;2022-10-17T04:33:23;6.28;;;3.28;;
14268;SDS011;7218;51.480;7.006;2022-10-17T04:35:56;5.07;;;3.65;;
14268;SDS011;7218;51.480;7.006;2022-10-17T04:38:24;4.68;;;3.28;;
14268;SDS011;7218;51.480;7.006;2022-10-17T04:40:51;3.85;;;3.25;;
14268;SDS011;7218;51.480;7.006;2022-10-17T04:43:18;6.50;;;3.65;;
14268;SDS011;7218;51.480;7.006;2022-10-17T04:45:46;5.90;;;3.42;;
14268;SDS011;7218;51.480;7.006;2022-10-17T04:48:12;6.68;;;3.42;;
14268;SDS011;7218;51.480;7.006;2022-10-17T04:50:39;3.55;;;3.25;;
14268;SDS011;7218;51.480;7.006;2022-10-17T04:53:05;5.45;;;3.53;;
14268;SDS011;7218;51.480;7.006;2022-10-17T04:55:35;6.28;;;3.50;;
14268;SDS011;7218;51.480;7.006;2022-10-17T04:58:02;5.13;;;3.17;;
14268;SDS011;7218;51.480;7.006;2022-10-17T05:00:29;4.93;;;3.40;;
14268;SDS011;7218;51.480;7.006;2022-10-17T05:02:57;6.10;;;3.33;;
14268;SDS011;7218;51.480;7.006;2022-10-17T05:05:23;3.95;;;3.15;;
14268;SDS011;7218;51.480;7.006;2022-10-17T05:07:50;4.80;;;3.38;;
14268;SDS011;7218;51.480;7.006;2022-10-17T05:10:16;10.77;;;3.65;;
14268;SDS011;7218;51.480;7.006;2022-10-17T05:12:43;4.88;;;3.47;;
14268;SDS011;7218;51.480;7.006;2022-10-17T05:15:09;6.00;;;3.30;;
14268;SDS011;7218;51.480;7.006;2022-10-17T05:17:36;4.75;;;3.42;;
14268;SDS011;7218;51.480;7.006;2022-10-17T05:20:04;5.03;;;3.20;;
14268;SDS011;7218;51.480;7.006;2022-10-17T05:22:31;5.88;;;3.45;;
14268;SDS011;7218;51.480;7.006;2022-10-17T05:24:58;4.32;;;3.70;;
14268;SDS011;7218;51.480;7.006;2022-10-17T05:27:24;6.13;;;3.28;;
14268;SDS011;7218;51.480;7.006;2022-10-17T05:29:51;5.00;;;3.30;;
14268;SDS011;7218;51.480;7.006;2022-10-17T05:32:17;5.82;;;3.55;;
14268;SDS011;7218;51.480;7.006;2022-10-17T05:34:44;5.50;;;3.17;;
14268;SDS011;7218;51.480;7.006;2022-10-17T05:37:12;5.80;;;3.08;;
14268;SDS011;7218;51.480;7.006;2022-10-17T05:39:38;3.70;;;3.13;;
14268;SDS011;7218;51.480;7.006;2022-10-17T05:42:05;5.15;;;3.40;;
14268;SDS011;7218;51.480;7.006;2022-10-17T05:44:32;5.32;;;3.22;;
14268;SDS011;7218;51.480;7.006;2022-10-17T05:46:58;4.90;;;3.47;;
14268;SDS011;7218;51.480;7.006;2022-10-17T05:49:25;4.22;;;3.15;;
14268;SDS011;7218;51.480;7.006;2022-10-17T05:51:52;6.60;;;3.35;;
14268;SDS011;7218;51.480;7.006;2022-10-17T05:54:20;7.45;;;3.67;;
14268;SDS011;7218;51.480;7.006;2022-10-17T05:56:50;6.43;;;3.45;;
14268;SDS011;7218;51.480;7.006;2022-10-17T05:59:16;4.93;;;3.20;;
14268;SDS011;7218;51.480;7.006;2022-10-17T06:01:43;5.32;;;3.40;;
14268;SDS011;7218;51.480;7.006;2022-10-17T06:04:09;6.25;;;3.10;;
14268;SDS011;7218;51.480;7.006;2022-10-17T06:06:36;5.70;;;3.28;;
14268;SDS011;7218;51.480;7.006;2022-10-17T06:09:03;6.63;;;3.70;;
14268;SDS011;7218;51.480;7.006;2022-10-17T06:11:31;5.38;;;3.40;;
14268;SDS011;7218;51.480;7.006;2022-10-17T06:13:58;3.92;;;3.30;;
14268;SDS011;7218;51.480;7.006;2022-10-17T06:16:24;4.25;;;3.10;;
14268;SDS011;7218;51.480;7.006;2022-10-17T06:18:51;6.35;;;3.20;;
14268;SDS011;7218;51.480;7.006;2022-10-17T06:21:19;5.55;;;3.45;;
14268;SDS011;7218;51.480;7.006;2022-10-17T06:23:47;5.28;;;3.42;;
14268;SDS011;7218;51.480;7.006;2022-10-17T06:26:14;5.00;;;3.10;;
14268;SDS011;7218;51.480;7.006;2022-10-17T06:28:41;3.80;;;3.20;;
14268;SDS011;7218;51.480;7.006;2022-10-17T06:31:10;5.60;;;3.35;;
14268;SDS011;7218;51.480;7.006;2022-10-17T06:33:38;3.83;;;3.13;;
14268;SDS011;7218;51.480;7.006;2022-10-17T06:36:05;5.22;;;3.10;;
14268;SDS011;7218;51.480;7.006;2022-10-17T06:38:32;5.72;;;3.00;;
14268;SDS011;7218;51.480;7.006;2022-10-17T06:41:03;4.95;;;3.20;;
14268;SDS011;7218;51.480;7.006;2022-10-17T06:43:32;5.93;;;3.63;;
14268;SDS011;7218;51.480;7.006;2022-10-17T06:46:00;9.27;;;3.15;;
14268;SDS011;7218;51.480;7.006;2022-10-17T06:48:26;6.10;;;3.25;;
14268;SDS011;7218;51.480;7.006;2022-10-17T06:50:53;7.30;;;3.30;;
14268;SDS011;7218;51.480;7.006;2022-10-17T06:53:25;4.95;;;2.92;;
14268;SDS011;7218;51.480;7.006;2022-10-17T06:55:53;6.57;;;3.35;;
14268;SDS011;7218;51.480;7.006;2022-10-17T06:58:25;4.90;;;3.50;;
14268;SDS011;7218;51.480;7.006;2022-10-17T07:00:51;6.18;;;3.38;;
14268;SDS011;7218;51.480;7.006;2022-10-17T07:03:19;9.07;;;3.60;;
14268;SDS011;7218;51.480;7.006;2022-10-17T07:05:49;6.47;;;3.25;;
14268;SDS011;7218;51.480;7.006;2022-10-17T07:08:16;5.20;;;2.88;;
14268;SDS011;7218;51.480;7.006;2022-10-17T07:10:43;5.00;;;3.20;;
14268;SDS011;7218;51.480;7.006;2022-10-17T07:13:09;7.20;;;3.20;;
14268;SDS011;7218;51.480;7.006;2022-10-17T07:15:36;6.03;;;3.35;;
14268;SDS011;7218;51.480;7.006;2022-10-17T07:18:03;5.95;;;3.63;;
14268;SDS011;7218;51.480;7.006;2022-10-17T07:20:31;6.40;;;3.55;;
14268;SDS011;7218;51.480;7.006;2022-10-17T07:22:57;10.25;;;3.40;;
14268;SDS011;7218;51.480;7.006;2022-10-17T07:25:24;6.82;;;3.50;;
14268;SDS011;7218;51.480;7.006;2022-10-17T07:27:53;7.20;;;3.38;;
14268;SDS011;7218;51.480;7.006;2022-10-17T07:30:20;5.25;;;3.00;;
14268;SDS011;7218;51.480;7.006;2022-10-17T07:32:47;4.95;;;3.28;;
14268;SDS011;7218;51.480;7.006;2022-10-17T07:35:13;6.53;;;3.28;;
14268;SDS011;7218;51.480;7.006;2022-10-17T07:37:41;6.28;;;3.45;;
14268;SDS011;7218;51.480;7.006;2022-10-17T07:40:08;9.23;;;3.72;;
14268;SDS011;7218;51.480;7.006;2022-10-17T07:42:35;6.30;;;3.33;;
14268;SDS011;7218;51.480;7.006;2022-10-17T07:45:02;5.00;;;3.30;;
14268;SDS011;7218;51.480;7.006;2022-10-17T07:47:29;7.35;;;3.33;;
14268;SDS011;7218;51.480;7.006;2022-10-17T07:49:59;6.82;;;3.05;;
14268;SDS011;7218;51.480;7.006;2022-10-17T07:52:26;5.03;;;3.33;;
14268;SDS011;7218;51.480;7.006;2022-10-17T07:54:54;7.22;;;3.15;;
14268;SDS011;7218;51.480;7.006;2022-10-17T07:57:20;5.20;;;3.15;;
14268;SDS011;7218;51.480;7.006;2022-10-17T07:59:47;5.63;;;2.90;;
14268;SDS011;7218;51.480;7.006;2022-10-17T08:02:17;5.70;;;3.20;;
14268;SDS011;7218;51.480;7.006;2022-10-17T08:04:46;7.40;;;3.65;;
14268;SDS011;7218;51.480;7.006;2022-10-17T08:07:13;3.88;;;2.88;;
14268;SDS011;7218;51.480;7.006;2022-10-17T08:09:40;7.07;;;3.08;;
14268;SDS011;7218;51.480;7.006;2022-10-17T08:12:08;5.32;;;3.17;;
14268;SDS011;7218;51.480;7.006;2022-10-17T08:14:34;4.53;;;2.90;;
14268;SDS011;7218;51.480;7.006;2022-10-17T08:17:01;5.10;;;2.97;;
14268;SDS011;7218;51.480;7.006;2022-10-17T08:19:27;4.07;;;2.80;;
14268;SDS011;7218;51.480;7.006;2022-10-17T08:21:54;7.07;;;3.05;;
14268;SDS011;7218;51.480;7.006;2022-10-17T08:24:22;4.47;;;2.75;;
14268;SDS011;7218;51.480;7.006;2022-10-17T08:26:48;3.05;;;2.63;;
14268;SDS011;7218;51.480;7.006;2022-10-17T08:29:18;4.75;;;2.70;;
14268;SDS011;7218;51.480;7.006;2022-10-17T08:31:45;5.03;;;2.70;;
14268;SDS011;7218;51.480;7.006;2022-10-17T08:34:11;5.32;;;2.90;;
14268;SDS011;7218;51.480;7.006;2022-10-17T08:36:38;6.93;;;3.03;;
14268;SDS011;7218;51.480;7.006;2022-10-17T08:39:04;5.20;;;2.80;;
14268;SDS011;7218;51.480;7.006;2022-10-17T08:41:37;4.95;;;2.80;;
14268;SDS011;7218;51.480;7.006;2022-10-17T08:44:15;4.82;;;2.80;;
14268;SDS011;7218;51.480;7.006;2022-10-17T08:46:51;4.53;;;2.72;;
14268;SDS011;7218;51.480;7.006;2022-10-17T08:49:22;6.55;;;2.60;;
14268;SDS011;7218;51.480;7.006;2022-10-17T08:51:57;5.78;;;2.83;;
14268;SDS011;7218;51.480;7.006;2022-10-17T08:54:30;4.97;;;2.58;;
14268;SDS011;7218;51.480;7.006;2022-10-17T08:57:07;5.32;;;2.97;;
14268;SDS011;7218;51.480;7.006;2022-10-17T08:59:38;8.07;;;2.88;;
14268;SDS011;7218;51.480;7.006;2022-10-17T09:02:10;7.38;;;2.60;;
14268;SDS011;7218;51.480;7.006;2022-10-17T09:04:54;4.85;;;2.70;;
14268;SDS011;7218;51.480;7.006;2022-10-17T09:07:31;4.28;;;2.63;;
14268;SDS011;7218;51.480;7.006;2022-10-17T09:10:03;5.90;;;2.70;;
14268;SDS011;7218;51.480;7.006;2022-10-17T09:12:40;4.88;;;2.63;;
14268;SDS011;7218;51.480;7.006;2022-10-17T09:15:33;5.03;;;2.70;;
14268;SDS011;7218;51.480;7.006;2022-10-17T09:18:08;4.80;;;2.63;;
14268;SDS011;7218;51.480;7.006;2022-10-17T09:20:39;4.40;;;2.50;;
14268;SDS011;7218;51.480;7.006;2022-10-17T09:23:10;5.63;;;2.47;;
14268;SDS011;7218;51.480;7.006;2022-10-17T09:25:41;4.05;;;2.67;;
14268;SDS011;7218;51.480;7.006;2022-10-17T09:28:11;5.00;;;2.83;;
14268;SDS011;7218;51.480;7.006;2022-10-17T09:30:43;3.38;;;2.70;;
14268;SDS011;7218;51.480;7.006;2022-10-17T09:33:12;2.83;;;2.50;;
14268;SDS011;7218;51.480;7.006;2022-10-17T09:35:40;4.43;;;2.72;;
14268;SDS011;7218;51.480;7.006;2022-10-17T09:38:15;4.10;;;2.63;;
14268;SDS011;7218;51.480;7.006;2022-10-17T09:40:43;5.03;;;2.75;;
14268;SDS011;7218;51.480;7.006;2022-10-17T09:43:16;4.72;;;3.05;;
14268;SDS011;7218;51.480;7.006;2022-10-17T09:45:44;4.15;;;2.72;;
14268;SDS011;7218;51.480;7.006;2022-10-17T09:48:20;9.10;;;2.80;;
14268;SDS011;7218;51.480;7.006;2022-10-17T09:50:52;4.10;;;2.47;;
14268;SDS011;7218;51.480;7.006;2022-10-17T09:53:20;5.07;;;2.92;;
14268;SDS011;7218;51.480;7.006;2022-10-17T09:55:51;3.47;;;2.80;;
14268;SDS011;7218;51.480;7.006;2022-10-17T09:58:21;4.45;;;2.70;;
14268;SDS011;7218;51.480;7.006;2022-10-17T10:00:50;7.50;;;3.38;;
14268;SDS011;7218;51.480;7.006;2022-10-17T10:03:17;3.75;;;2.90;;
14268;SDS011;7218;51.480;7.006;2022-10-17T10:05:58;6.07;;;2.65;;
14268;SDS011;7218;51.480;7.006;2022-10-17T10:08:27;5.93;;;3.13;;
14268;SDS011;7218;51.480;7.006;2022-10-17T10:10:56;4.20;;;2.80;;
14268;SDS011;7218;51.480;7.006;2022-10-17T10:13:24;7.38;;;3.20;;
14268;SDS011;7218;51.480;7.006;2022-10-17T10:15:53;5.18;;;2.53;;
14268;SDS011;7218;51.480;7.006;2022-10-17T10:18:37;4.85;;;2.92;;
14268;SDS011;7218;51.480;7.006;2022-10-17T10:21:07;4.00;;;2.70;;
14268;SDS011;7218;51.480;7.006;2022-10-17T10:23:36;7.72;;;2.83;;
14268;SDS011;7218;51.480;7.006;2022-10-17T10:26:16;7.20;;;2.75;;
14268;SDS011;7218;51.480;7.006;2022-10-17T10:28:53;5.28;;;3.05;;
14268;SDS011;7218;51.480;7.006;2022-10-17T10:31:31;7.78;;;3.00;;
14268;SDS011;7218;51.480;7.006;2022-10-17T10:34:00;7.32;;;3.17;;
14268;SDS011;7218;51.480;7.006;2022-10-17T10:36:52;4.50;;;2.80;;
14268;SDS011;7218;51.480;7.006;2022-10-17T10:39:33;6.85;;;2.92;;
14268;SDS011;7218;51.480;7.006;2022-10-17T10:42:06;4.50;;;2.80;;
14268;SDS011;7218;51.480;7.006;2022-10-17T10:44:42;6.80;;;3.05;;
14268;SDS011;7218;51.480;7.006;2022-10-17T10:47:17;7.13;;;3.10;;
14268;SDS011;7218;51.480;7.006;2022-10-17T10:49:46;5.55;;;2.95;;
14268;SDS011;7218;51.480;7.006;2022-10-17T10:52:18;6.68;;;3.00;;
14268;SDS011;7218;51.480;7.006;2022-10-17T10:54:54;5.80;;;3.10;;
14268;SDS011;7218;51.480;7.006;2022-10-17T10:57:29;7.45;;;2.90;;
14268;SDS011;7218;51.480;7.006;2022-10-17T11:00:02;7.25;;;3.22;;
14268;SDS011;7218;51.480;7.006;2022-10-17T11:02:39;5.07;;;2.70;;
14268;SDS011;7218;51.480;7.006;2022-10-17T11:05:12;5.35;;;2.90;;
14268;SDS011;7218;51.480;7.006;2022-10-17T11:07:49;5.35;;;2.92;;
14268;SDS011;7218;51.480;7.006;2022-10-17T11:10:21;3.28;;;2.65;;
14268;SDS011;7218;51.480;7.006;2022-10-17T11:12:51;6.00;;;2.88;;
14268;SDS011;7218;51.480;7.006;2022-10-17T11:15:23;6.93;;;3.03;;
14268;SDS011;7218;51.480;7.006;2022-10-17T11:17:58;4.05;;;3.00;;
14268;SDS011;7218;51.480;7.006;2022-10-17T11:20:28;10.20;;;3.80;;
14268;SDS011;7218;51.480;7.006;2022-10-17T11:23:00;6.07;;;3.10;;
14268;SDS011;7218;51.480;7.006;2022-10-17T11:25:35;5.72;;;3.20;;
14268;SDS011;7218;51.480;7.006;2022-10-17T11:28:03;7.57;;;3.30;;
14268;SDS011;7218;51.480;7.006;2022-10-17T11:30:40;7.05;;;2.85;;
14268;SDS011;7218;51.480;7.006;2022-10-17T11:33:12;6.35;;;3.00;;
14268;SDS011;7218;51.480;7.006;2022-10-17T11:35:45;6.53;;;3.35;;
14268;SDS011;7218;51.480;7.006;2022-10-17T11:38:17;6.18;;;3.03;;
14268;SDS011;7218;51.480;7.006;2022-10-17T11:40:50;5.80;;;3.20;;
14268;SDS011;7218;51.480;7.006;2022-10-17T11:43:19;6.07;;;3.00;;
14268;SDS011;7218;51.480;7.006;2022-10-17T11:45:50;6.32;;;3.40;;
14268;SDS011;7218;51.480;7.006;2022-10-17T11:48:24;8.93;;;3.70;;
14268;SDS011;7218;51.480;7.006;2022-10-17T11:50:56;5.43;;;3.28;;
14268;SDS011;7218;51.480;7.006;2022-10-17T11:53:30;8.05;;;3.70;;
14268;SDS011;7218;51.480;7.006;2022-10-17T11:56:08;6.07;;;3.25;;
14268;SDS011;7218;51.480;7.006;2022-10-17T11:58:38;9.50;;;3.40;;
14268;SDS011;7218;51.480;7.006;2022-10-17T12:01:13;6.68;;;3.20;;
14268;SDS011;7218;51.480;7.006;2022-10-17T12:04:02;7.38;;;3.40;;
14268;SDS011;7218;51.480;7.006;2022-10-17T12:06:46;7.38;;;3.53;;
14268;SDS011;7218;51.480;7.006;2022-10-17T12:09:23;6.60;;;3.40;;
14268;SDS011;7218;51.480;7.006;2022-10-17T12:11:55;9.82;;;3.35;;
14268;SDS011;7218;51.480;7.006;2022-10-17T12:14:33;8.13;;;3.40;;
14268;SDS011;7218;51.480;7.006;2022-10-17T12:17:04;6.32;;;3.45;;
14268;SDS011;7218;51.480;7.006;2022-10-17T12:19:47;6.40;;;3.75;;
14268;SDS011;7218;51.480;7.006;2022-10-17T12:22:18;6.53;;;3.30;;
14268;SDS011;7218;51.480;7.006;2022-10-17T12:24:54;8.40;;;3.60;;
14268;SDS011;7218;51.480;7.006;2022-10-17T12:27:27;7.55;;;3.42;;
14268;SDS011;7218;51.480;7.006;2022-10-17T12:30:00;5.35;;;3.15;;
14268;SDS011;7218;51.480;7.006;2022-10-17T12:32:27;4.88;;;3.13;;
14268;SDS011;7218;51.480;7.006;2022-10-17T12:34:55;6.13;;;3.17;;
14268;SDS011;7218;51.480;7.006;2022-10-17T12:40:00;8.07;;;3.22;;
14268;SDS011;7218;51.480;7.006;2022-10-17T12:42:28;7.50;;;3.22;;
14268;SDS011;7218;51.480;7.006;2022-10-17T12:48:10;7.95;;;3.63;;
14268;SDS011;7218;51.480;7.006;2022-10-17T12:53:28;7.03;;;3.63;;
14268;SDS011;7218;51.480;7.006;2022-10-17T12:56:04;6.68;;;4.07;;
14268;SDS011;7218;51.480;7.006;2022-10-17T12:58:32;6.07;;;3.80;;
14268;SDS011;7218;51.480;7.006;2022-10-17T13:01:00;7.72;;;3.90;;
14268;SDS011;7218;51.480;7.006;2022-10-17T13:03:29;5.05;;;3.60;;
14268;SDS011;7218;51.480;7.006;2022-10-17T13:05:58;10.57;;;4.53;;
14268;SDS011;7218;51.480;7.006;2022-10-17T13:08:29;4.72;;;3.80;;
14268;SDS011;7218;51.480;7.006;2022-10-17T13:10:57;8.43;;;3.90;;
14268;SDS011;7218;51.480;7.006;2022-10-17T13:13:30;5.68;;;4.20;;
14268;SDS011;7218;51.480;7.006;2022-10-17T13:16:03;8.57;;;4.88;;
14268;SDS011;7218;51.480;7.006;2022-10-17T13:18:30;8.25;;;4.60;;
14268;SDS011;7218;51.480;7.006;2022-10-17T13:21:01;6.43;;;3.70;;
14268;SDS011;7218;51.480;7.006;2022-10-17T13:23:30;7.65;;;4.00;;
14268;SDS011;7218;51.480;7.006;2022-10-17T13:26:06;8.88;;;4.20;;
14268;SDS011;7218;51.480;7.006;2022-10-17T13:28:44;5.90;;;3.90;;
14268;SDS011;7218;51.480;7.006;2022-10-17T13:31:28;8.07;;;4.20;;
14268;SDS011;7218;51.480;7.006;2022-10-17T13:33:56;11.07;;;4.20;;
14268;SDS011;7218;51.480;7.006;2022-10-17T13:36:25;7.53;;;4.00;;
14268;SDS011;7218;51.480;7.006;2022-10-17T13:38:54;6.70;;;3.83;;
14268;SDS011;7218;51.480;7.006;2022-10-17T13:41:22;8.50;;;4.07;;
14268;SDS011;7218;51.480;7.006;2022-10-17T13:43:52;7.18;;;3.83;;
14268;SDS011;7218;51.480;7.006;2022-10-17T13:46:24;8.13;;;3.78;;
14268;SDS011;7218;51.480;7.006;2022-10-17T13:48:52;9.00;;;4.13;;
14268;SDS011;7218;51.480;7.006;2022-10-17T13:51:19;4.95;;;3.55;;
14268;SDS011;7218;51.480;7.006;2022-10-17T13:53:47;7.32;;;4.05;;
14268;SDS011;7218;51.480;7.006;2022-10-17T13:56:17;9.23;;;4.32;;
14268;SDS011;7218;51.480;7.006;2022-10-17T13:58:46;7.88;;;3.80;;
14268;SDS011;7218;51.480;7.006;2022-10-17T14:01:14;7.97;;;4.60;;
14268;SDS011;7218;51.480;7.006;2022-10-17T14:03:42;7.50;;;3.83;;
14268;SDS011;7218;51.480;7.006;2022-10-17T14:06:13;11.20;;;4.40;;
14268;SDS011;7218;51.480;7.006;2022-10-17T14:08:54;7.03;;;3.92;;
14268;SDS011;7218;51.480;7.006;2022-10-17T14:11:25;7.32;;;3.95;;
14268;SDS011;7218;51.480;7.006;2022-10-17T14:13:55;4.97;;;3.50;;
14268;SDS011;7218;51.480;7.006;2022-10-17T14:16:23;8.68;;;3.95;;
14268;SDS011;7218;51.480;7.006;2022-10-17T14:18:52;5.07;;;3.40;;
14268;SDS011;7218;51.480;7.006;2022-10-17T14:21:23;9.25;;;3.92;;
14268;SDS011;7218;51.480;7.006;2022-10-17T14:26:46;5.07;;;3.47;;
14268;SDS011;7218;51.480;7.006;2022-10-17T14:29:19;11.15;;;4.32;;
14268;SDS011;7218;51.480;7.006;2022-10-17T14:31:47;8.15;;;3.80;;
14268;SDS011;7218;51.480;7.006;2022-10-17T14:34:19;8.07;;;3.97;;
14268;SDS011;7218;51.480;7.006;2022-10-17T14:36:47;6.97;;;4.00;;
14268;SDS011;7218;51.480;7.006;2022-10-17T14:39:18;13.85;;;3.92;;
14268;SDS011;7218;51.480;7.006;2022-10-17T14:41:48;6.57;;;4.00;;
14268;SDS011;7218;51.480;7.006;2022-10-17T14:44:18;8.13;;;4.25;;
14268;SDS011;7218;51.480;7.006;2022-10-17T14:46:47;9.48;;;4.13;;
14268;SDS011;7218;51.480;7.006;2022-10-17T14:49:20;7.50;;;4.55;;
14268;SDS011;7218;51.480;7.006;2022-10-17T14:52:11;10.30;;;5.30;;
14268;SDS011;7218;51.480;7.006;2022-10-17T14:54:55;6.32;;;3.78;;
14268;SDS011;7218;51.480;7.006;2022-10-17T14:57:24;10.35;;;4.72;;
14268;SDS011;7218;51.480;7.006;2022-10-17T14:59:53;9.07;;;4.35;;
14268;SDS011;7218;51.480;7.006;2022-10-17T15:02:21;11.10;;;6.10;;
14268;SDS011;7218;51.480;7.006;2022-10-17T15:04:48;9.52;;;4.57;;
14268;SDS011;7218;51.480;7.006;2022-10-17T15:07:15;6.78;;;3.42;;
14268;SDS011;7218;51.480;7.006;2022-10-17T15:09:43;6.50;;;3.00;;
14268;SDS011;7218;51.480;7.006;2022-10-17T15:12:13;5.75;;;3.03;;
14268;SDS011;7218;51.480;7.006;2022-10-17T15:14:41;3.70;;;3.00;;
14268;SDS011;7218;51.480;7.006;2022-10-17T15:17:10;7.50;;;3.38;;
14268;SDS011;7218;51.480;7.006;2022-10-17T15:19:38;6.85;;;3.15;;
14268;SDS011;7218;51.480;7.006;2022-10-17T15:22:05;6.72;;;3.55;;
14268;SDS011;7218;51.480;7.006;2022-10-17T15:24:31;7.53;;;3.95;;
14268;SDS011;7218;51.480;7.006;2022-10-17T15:26:58;7.45;;;3.78;;
14268;SDS011;7218;51.480;7.006;2022-10-17T15:29:25;5.40;;;3.83;;
14268;SDS011;7218;51.480;7.006;2022-10-17T15:31:52;5.03;;;3.85;;
14268;SDS011;7218;51.480;7.006;2022-10-17T15:34:19;7.05;;;3.70;;